Time;durP1;ratioP1;P1;durP2;ratioP2;P2;SDS_P1;SDS_P2;PMS_P1;PMS_P2;Temp;Humidity;BMP_temperature;BMP_pressure;BME280_temperature;BME280_humidity;BME280_pressure;Samples;Min_cycle;Max_cycle;Signal;HPM_P1;HPM_P2
2022/07/13 00:00:51;;;;;;;5.88;2.92;;;;;;;;;;6278476;28;20053;-78
2022/07/13 00:03:54;;;;;;;9.23;2.47;;;;;;;;;;6274797;28;20061;-77
2022/07/13 00:06:56;;;;;;;4.50;2.38;;;;;;;;;;6273616;28;20355;-77
2022/07/13 00:09:58;;;;;;;5.25;2.40;;;;;;;;;;6268999;28;20053;-77
2022/07/13 00:13:00;;;;;;;3.88;2.60;;;;;;;;;;6274945;28;20447;-78
2022/07/13 00:16:01;;;;;;;5.78;2.40;;;;;;;;;;6277284;28;20049;-76
2022/07/13 00:19:05;;;;;;;4.30;1.92;;;;;;;;;;6274091;28;20068;-78
2022/07/13 00:22:06;;;;;;;3.47;2.03;;;;;;;;;;6272556;28;20087;-80
2022/07/13 00:25:08;;;;;;;3.67;2.20;;;;;;;;;;6272992;28;20063;-78
2022/07/13 00:28:10;;;;;;;4.55;2.00;;;;;;;;;;6274733;28;20232;-78
2022/07/13 00:31:12;;;;;;;5.88;2.05;;;;;;;;;;6274376;28;20343;-81
2022/07/13 00:34:15;;;;;;;4.13;2.40;;;;;;;;;;6272342;28;20053;-80
2022/07/13 00:37:17;;;;;;;7.53;2.50;;;;;;;;;;6276628;28;20056;-79
2022/07/13 00:40:18;;;;;;;4.43;2.35;;;;;;;;;;6277631;28;20049;-80
2022/07/13 00:43:20;;;;;;;4.80;2.20;;;;;;;;;;6273906;28;20059;-82
2022/07/13 00:46:22;;;;;;;5.03;2.00;;;;;;;;;;6277081;28;20103;-80
2022/07/13 00:49:25;;;;;;;4.13;2.03;;;;;;;;;;6273736;28;20061;-77
2022/07/13 00:52:27;;;;;;;4.72;2.15;;;;;;;;;;6274147;28;20049;-79
2022/07/13 00:55:29;;;;;;;5.30;2.22;;;;;;;;;;6275657;28;20045;-80
2022/07/13 00:58:31;;;;;;;3.90;2.13;;;;;;;;;;6275421;28;20045;-79
2022/07/13 01:01:32;;;;;;;3.60;2.10;;;;;;;;;;6275997;28;20065;-79
2022/07/13 01:04:36;;;;;;;3.08;2.00;;;;;;;;;;6279502;28;20384;-81
2022/07/13 01:07:38;;;;;;;2.75;1.60;;;;;;;;;;6276373;28;20108;-78
2022/07/13 01:10:40;;;;;;;4.15;1.90;;;;;;;;;;6275880;28;20048;-77
2022/07/13 01:13:42;;;;;;;4.13;2.00;;;;;;;;;;6275567;28;20323;-79
2022/07/13 01:16:44;;;;;;;5.45;2.10;;;;;;;;;;6279465;28;20102;-79
2022/07/13 01:19:47;;;;;;;4.53;2.03;;;;;;;;;;6279329;28;20048;-77
2022/07/13 01:22:53;;;;;;;3.90;1.90;;;;;;;;;;6276761;28;20049;-78
2022/07/13 01:25:56;;;;;;;3.60;1.75;;;;;;;;;;6279263;28;20057;-78
2022/07/13 01:28:58;;;;;;;4.75;1.92;;;;;;;;;;6277907;28;20056;-76
2022/07/13 01:32:01;;;;;;;2.30;1.80;;;;;;;;;;6282135;28;20282;-80
2022/07/13 01:35:02;;;;;;;3.45;1.85;;;;;;;;;;6281659;28;20140;-80
2022/07/13 01:38:04;;;;;;;1.90;1.67;;;;;;;;;;6278594;28;20049;-80
2022/07/13 01:41:07;;;;;;;3.38;1.90;;;;;;;;;;6273054;28;20283;-82
2022/07/13 01:44:09;;;;;;;4.97;1.80;;;;;;;;;;6278762;28;20275;-77
2022/07/13 01:47:10;;;;;;;3.25;1.60;;;;;;;;;;6279299;28;20060;-82
2022/07/13 01:50:14;;;;;;;2.75;1.95;;;;;;;;;;6272297;28;20057;-78
2022/07/13 01:53:15;;;;;;;5.90;1.90;;;;;;;;;;6275849;28;20061;-79
2022/07/13 01:56:18;;;;;;;3.17;1.65;;;;;;;;;;6280920;28;20268;-76
2022/07/13 01:59:20;;;;;;;5.22;1.95;;;;;;;;;;6279612;28;20275;-76
2022/07/13 02:02:21;;;;;;;5.22;1.88;;;;;;;;;;6279992;28;20080;-74
2022/07/13 02:05:26;;;;;;;3.13;1.80;;;;;;;;;;6277493;28;20053;-75
2022/07/13 02:08:28;;;;;;;6.38;2.03;;;;;;;;;;6277241;28;20279;-75
2022/07/13 02:11:31;;;;;;;2.33;1.90;;;;;;;;;;6277476;28;20094;-75
2022/07/13 02:14:33;;;;;;;5.00;1.70;;;;;;;;;;6278715;28;20782;-75
2022/07/13 02:17:34;;;;;;;3.83;1.63;;;;;;;;;;6278518;28;20041;-79
2022/07/13 02:20:36;;;;;;;5.97;2.05;;;;;;;;;;6277267;28;20090;-77
2022/07/13 02:23:38;;;;;;;2.47;1.50;;;;;;;;;;6280851;28;20064;-75
2022/07/13 02:26:41;;;;;;;2.88;1.60;;;;;;;;;;6276485;28;20041;-74
2022/07/13 02:29:43;;;;;;;2.28;1.70;;;;;;;;;;6281355;28;20077;-75
2022/07/13 02:32:46;;;;;;;5.60;1.80;;;;;;;;;;6277901;28;20045;-75
2022/07/13 02:35:48;;;;;;;3.60;1.63;;;;;;;;;;6280295;28;20060;-78
2022/07/13 02:38:50;;;;;;;3.33;1.80;;;;;;;;;;6278154;28;20279;-75
2022/07/13 02:41:53;;;;;;;3.60;1.80;;;;;;;;;;6274216;28;20225;-76
2022/07/13 02:44:55;;;;;;;3.58;2.17;;;;;;;;;;6278471;28;20049;-74
2022/07/13 02:47:57;;;;;;;2.83;1.73;;;;;;;;;;6277926;28;20120;-75
2022/07/13 02:50:58;;;;;;;3.00;1.77;;;;;;;;;;6278919;28;20047;-75
2022/07/13 02:54:00;;;;;;;3.65;1.70;;;;;;;;;;6282906;28;20351;-76
2022/07/13 02:57:05;;;;;;;5.00;1.88;;;;;;;;;;6279055;28;20058;-77
2022/07/13 03:00:08;;;;;;;5.78;1.70;;;;;;;;;;6275255;28;20049;-75
2022/07/13 03:03:09;;;;;;;4.38;1.88;;;;;;;;;;6279526;28;20092;-75
2022/07/13 03:06:11;;;;;;;3.50;1.73;;;;;;;;;;6278426;28;20061;-75
2022/07/13 03:09:13;;;;;;;2.58;1.73;;;;;;;;;;6279012;28;20340;-75
2022/07/13 03:12:16;;;;;;;2.65;1.60;;;;;;;;;;6275878;28;20057;-75
2022/07/13 03:15:18;;;;;;;2.97;1.55;;;;;;;;;;6279914;28;20045;-75
2022/07/13 03:18:19;;;;;;;2.67;1.70;;;;;;;;;;6275803;28;20079;-75
2022/07/13 03:21:21;;;;;;;4.78;1.60;;;;;;;;;;6279562;28;20049;-75
2022/07/13 03:24:23;;;;;;;2.53;1.70;;;;;;;;;;6276337;28;20047;-75
2022/07/13 03:27:26;;;;;;;3.35;1.65;;;;;;;;;;6276517;28;20096;-76
2022/07/13 03:30:28;;;;;;;2.85;1.55;;;;;;;;;;6274944;28;20060;-76
2022/07/13 03:33:30;;;;;;;2.95;1.83;;;;;;;;;;6281150;28;20048;-75
2022/07/13 03:36:31;;;;;;;3.80;1.50;;;;;;;;;;6280068;28;20061;-74
2022/07/13 03:39:33;;;;;;;1.88;1.60;;;;;;;;;;6278692;28;20061;-75
2022/07/13 03:42:38;;;;;;;3.15;2.00;;;;;;;;;;6276654;28;20045;-75
2022/07/13 03:45:39;;;;;;;4.03;1.88;;;;;;;;;;6277518;28;20045;-76
2022/07/13 03:48:41;;;;;;;6.45;1.65;;;;;;;;;;6278399;28;20052;-75
2022/07/13 03:51:43;;;;;;;4.95;2.00;;;;;;;;;;6276959;28;20066;-75
2022/07/13 03:54:44;;;;;;;5.53;1.80;;;;;;;;;;6279650;28;20099;-76
2022/07/13 03:57:47;;;;;;;6.53;2.28;;;;;;;;;;6275037;28;20053;-75
2022/07/13 04:00:49;;;;;;;5.13;1.85;;;;;;;;;;6273582;28;20053;-74
2022/07/13 04:03:51;;;;;;;3.45;1.98;;;;;;;;;;6274223;28;20064;-75
2022/07/13 04:06:53;;;;;;;2.65;1.90;;;;;;;;;;6276036;28;20129;-75
2022/07/13 04:09:54;;;;;;;3.00;1.70;;;;;;;;;;6279979;28;20056;-74
2022/07/13 04:12:58;;;;;;;3.53;2.08;;;;;;;;;;6259257;28;20045;-76
2022/07/13 04:16:00;;;;;;;3.83;1.83;;;;;;;;;;6275663;28;20053;-78
2022/07/13 04:19:01;;;;;;;3.45;2.00;;;;;;;;;;6280442;28;20053;-75
2022/07/13 04:22:03;;;;;;;4.65;2.13;;;;;;;;;;6276316;28;20068;-75
2022/07/13 04:25:06;;;;;;;3.85;2.00;;;;;;;;;;6278675;28;20232;-76
2022/07/13 04:28:09;;;;;;;3.63;2.13;;;;;;;;;;6271206;28;20056;-81
2022/07/13 04:31:10;;;;;;;5.22;2.72;;;;;;;;;;6274501;28;20053;-81
2022/07/13 04:34:12;;;;;;;7.18;2.80;;;;;;;;;;6279006;28;20053;-78
2022/07/13 04:37:13;;;;;;;5.97;2.72;;;;;;;;;;6275296;28;20048;-76
2022/07/13 04:40:15;;;;;;;10.00;2.72;;;;;;;;;;6274905;28;20324;-78
2022/07/13 04:43:18;;;;;;;9.55;2.63;;;;;;;;;;6275385;28;20068;-76
2022/07/13 04:46:20;;;;;;;6.13;2.95;;;;;;;;;;6276313;28;20212;-76
2022/07/13 04:49:22;;;;;;;8.90;2.80;;;;;;;;;;6278146;28;20323;-75
2022/07/13 04:52:24;;;;;;;4.93;2.65;;;;;;;;;;6275785;28;20343;-79
2022/07/13 04:55:26;;;;;;;10.23;2.50;;;;;;;;;;6282252;28;20053;-75
2022/07/13 04:58:29;;;;;;;5.20;2.47;;;;;;;;;;6281549;28;20100;-76
2022/07/13 05:01:31;;;;;;;6.68;2.20;;;;;;;;;;6280793;28;20369;-76
2022/07/13 05:04:33;;;;;;;9.07;2.58;;;;;;;;;;6279466;28;20415;-75
2022/07/13 05:07:34;;;;;;;6.38;2.40;;;;;;;;;;6278352;28;20320;-76
2022/07/13 05:10:36;;;;;;;4.13;2.45;;;;;;;;;;6280509;28;20040;-76
2022/07/13 05:13:39;;;;;;;5.00;2.40;;;;;;;;;;6281550;28;20103;-78
2022/07/13 05:16:41;;;;;;;6.13;2.05;;;;;;;;;;6279750;28;20048;-75
2022/07/13 05:19:43;;;;;;;4.80;2.45;;;;;;;;;;6280876;28;20060;-73
2022/07/13 05:22:45;;;;;;;5.10;2.33;;;;;;;;;;6282822;28;20056;-74
2022/07/13 05:25:47;;;;;;;6.63;2.72;;;;;;;;;;6279575;28;20064;-73
2022/07/13 05:28:50;;;;;;;6.53;2.40;;;;;;;;;;6279527;28;20074;-73
2022/07/13 05:31:51;;;;;;;3.85;2.20;;;;;;;;;;6278480;28;20057;-74
2022/07/13 05:34:53;;;;;;;6.32;1.90;;;;;;;;;;6280337;28;20209;-74
2022/07/13 05:37:55;;;;;;;4.57;2.25;;;;;;;;;;6278501;28;20063;-78
2022/07/13 05:40:57;;;;;;;3.28;2.10;;;;;;;;;;6273126;28;20056;-73
2022/07/13 05:44:00;;;;;;;3.13;1.92;;;;;;;;;;6274838;28;20053;-73
2022/07/13 05:47:01;;;;;;;3.33;2.08;;;;;;;;;;6279457;28;20049;-73
2022/07/13 05:50:04;;;;;;;2.83;2.05;;;;;;;;;;6281947;28;20081;-74
2022/07/13 05:53:05;;;;;;;4.55;2.83;;;;;;;;;;6277543;28;20044;-74
2022/07/13 05:56:07;;;;;;;5.38;2.25;;;;;;;;;;6280915;28;20247;-73
2022/07/13 05:59:10;;;;;;;3.45;2.10;;;;;;;;;;6277970;28;20056;-73
2022/07/13 06:02:12;;;;;;;7.43;2.22;;;;;;;;;;6282652;28;20049;-73
2022/07/13 06:05:14;;;;;;;4.43;2.60;;;;;;;;;;6279682;28;20050;-74
2022/07/13 06:08:15;;;;;;;4.57;2.63;;;;;;;;;;6278661;28;20100;-73
2022/07/13 06:11:17;;;;;;;3.08;2.20;;;;;;;;;;6279222;28;20048;-73
2022/07/13 06:14:20;;;;;;;5.97;2.05;;;;;;;;;;6279300;28;20045;-76
2022/07/13 06:17:22;;;;;;;3.40;2.33;;;;;;;;;;6278424;28;20049;-74
2022/07/13 06:20:24;;;;;;;3.97;2.40;;;;;;;;;;6278056;28;20081;-74
2022/07/13 06:23:25;;;;;;;5.32;1.88;;;;;;;;;;6281778;28;20049;-74
2022/07/13 06:26:27;;;;;;;3.97;2.20;;;;;;;;;;6277475;28;20057;-73
2022/07/13 06:29:30;;;;;;;5.00;1.90;;;;;;;;;;6277939;28;20324;-75
2022/07/13 06:32:32;;;;;;;3.58;2.08;;;;;;;;;;6278474;28;20065;-74
2022/07/13 06:35:34;;;;;;;3.38;1.77;;;;;;;;;;6277423;28;20053;-73
2022/07/13 06:38:36;;;;;;;4.40;2.33;;;;;;;;;;6276420;28;20045;-76
2022/07/13 06:41:37;;;;;;;4.38;2.08;;;;;;;;;;6279417;28;20094;-73
2022/07/13 06:44:41;;;;;;;3.78;2.20;;;;;;;;;;6279107;28;20256;-73
2022/07/13 06:47:42;;;;;;;;;;;;;;;;;;6280551;28;20273;-73
2022/07/13 06:50:44;;;;;;;5.72;2.17;;;;;;;;;;6278958;28;19917;-74
2022/07/13 06:53:46;;;;;;;3.17;2.30;;;;;;;;;;6278551;28;20217;-72
2022/07/13 06:56:47;;;;;;;5.25;2.35;;;;;;;;;;6278894;28;20060;-73
2022/07/13 06:59:51;;;;;;;6.05;2.25;;;;;;;;;;6275490;28;20045;-73
2022/07/13 07:02:52;;;;;;;3.92;2.28;;;;;;;;;;6280701;28;20041;-75
2022/07/13 07:05:55;;;;;;;4.95;2.15;;;;;;;;;;6284202;28;20108;-74
2022/07/13 07:08:58;;;;;;;7.55;2.25;;;;;;;;;;6279503;28;20069;-72
2022/07/13 07:12:00;;;;;;;3.42;2.50;;;;;;;;;;6280696;28;20057;-76
2022/07/13 07:15:03;;;;;;;4.90;2.47;;;;;;;;;;6280658;28;20057;-73
2022/07/13 07:18:05;;;;;;;3.38;2.30;;;;;;;;;;6276557;28;20053;-73
2022/07/13 07:21:07;;;;;;;4.65;2.13;;;;;;;;;;6285771;28;20045;-76
2022/07/13 07:24:09;;;;;;;3.70;2.40;;;;;;;;;;6276945;28;20512;-73
2022/07/13 07:27:11;;;;;;;5.28;2.13;;;;;;;;;;6275146;28;20101;-73
2022/07/13 07:30:15;;;;;;;3.28;1.90;;;;;;;;;;6273368;28;20048;-76
2022/07/13 07:33:16;;;;;;;4.85;2.00;;;;;;;;;;6278851;28;20274;-75
2022/07/13 07:36:18;;;;;;;8.93;2.25;;;;;;;;;;6282774;28;20351;-73
2022/07/13 07:39:20;;;;;;;5.03;1.88;;;;;;;;;;6277783;28;20087;-73
2022/07/13 07:42:21;;;;;;;3.55;1.63;;;;;;;;;;6281732;28;20044;-72
2022/07/13 07:45:24;;;;;;;2.85;1.45;;;;;;;;;;6282855;28;20076;-73
2022/07/13 07:48:26;;;;;;;4.28;1.60;;;;;;;;;;6278015;28;20045;-73
2022/07/13 07:51:28;;;;;;;2.58;1.20;;;;;;;;;;6270353;28;20063;-73
2022/07/13 07:54:29;;;;;;;4.78;1.55;;;;;;;;;;6272959;28;20278;-76
2022/07/13 07:57:31;;;;;;;1.98;1.40;;;;;;;;;;6271765;28;20070;-72
2022/07/13 08:00:34;;;;;;;3.55;1.63;;;;;;;;;;6268667;28;20056;-73
2022/07/13 08:03:36;;;;;;;4.93;1.73;;;;;;;;;;6263631;28;20061;-75
2022/07/13 08:06:38;;;;;;;3.83;1.55;;;;;;;;;;6249072;28;20049;-72
2022/07/13 08:09:39;;;;;;;2.13;1.63;;;;;;;;;;6250086;28;20061;-72
2022/07/13 08:12:41;;;;;;;2.95;1.40;;;;;;;;;;6251707;28;20049;-76
2022/07/13 08:15:44;;;;;;;3.08;1.50;;;;;;;;;;6249652;28;20049;-76
2022/07/13 08:18:46;;;;;;;3.53;1.42;;;;;;;;;;6252628;28;20053;-72
2022/07/13 08:21:48;;;;;;;2.92;1.50;;;;;;;;;;6250563;28;20065;-72
2022/07/13 08:24:50;;;;;;;4.53;1.77;;;;;;;;;;6249932;28;20336;-73
2022/07/13 08:27:52;;;;;;;2.60;1.40;;;;;;;;;;6252366;28;20236;-75
2022/07/13 08:30:55;;;;;;;3.07;1.40;;;;;;;;;;6251842;28;20056;-72
2022/07/13 08:40:41;;;;;;;5.18;1.60;;;;;;;;;;6249461;28;20049;-75
2022/07/13 08:43:43;;;;;;;3.88;1.80;;;;;;;;;;6247786;28;20329;-72
2022/07/13 08:46:46;;;;;;;2.67;1.80;;;;;;;;;;6248311;28;20351;-74
2022/07/13 08:49:50;;;;;;;3.08;1.50;;;;;;;;;;6249994;28;20053;-72
2022/07/13 08:52:52;;;;;;;2.90;1.40;;;;;;;;;;6250402;28;20267;-72
2022/07/13 08:55:56;;;;;;;3.80;1.30;;;;;;;;;;6251470;28;20256;-73
2022/07/13 08:58:58;;;;;;;2.70;1.30;;;;;;;;;;6250908;28;20299;-72
2022/07/13 09:02:01;;;;;;;5.18;1.58;;;;;;;;;;6251563;28;20053;-74
2022/07/13 09:05:03;;;;;;;4.25;1.58;;;;;;;;;;6269128;28;21251;-74
2022/07/13 09:08:06;;;;;;;;;;;;;;;;;;6269640;28;20116;-73
2022/07/13 09:11:08;;;;;;;6.38;1.92;;;;;;;;;;6272903;28;20155;-76
2022/07/13 09:14:09;;;;;;;2.58;1.30;;;;;;;;;;6270427;28;20057;-74
2022/07/13 09:17:35;;;;;;;4.32;1.30;;;;;;;;;;6274155;28;20059;-74
2022/07/13 09:20:36;;;;;;;5.57;1.55;;;;;;;;;;6270140;28;20228;-74
2022/07/13 09:23:38;;;;;;;4.70;1.50;;;;;;;;;;6270695;28;20382;-79
2022/07/13 09:26:41;;;;;;;3.70;1.60;;;;;;;;;;6271580;28;20041;-76
2022/07/13 09:29:43;;;;;;;2.08;1.27;;;;;;;;;;6276474;28;20109;-78
2022/07/13 09:32:47;;;;;;;4.70;1.88;;;;;;;;;;6274182;28;20049;-74
2022/07/13 09:35:50;;;;;;;5.40;1.60;;;;;;;;;;6274063;28;20068;-74
2022/07/13 09:38:52;;;;;;;2.92;1.60;;;;;;;;;;6271741;28;20111;-77
2022/07/13 09:41:54;;;;;;;2.90;1.55;;;;;;;;;;6276844;28;20069;-74
2022/07/13 09:48:17;;;;;;;2.55;1.40;;;;;;;;;;6277500;28;20315;-75
2022/07/13 09:51:26;;;;;;;2.35;1.50;;;;;;;;;;6276947;28;20690;-74
2022/07/13 09:54:30;;;;;;;3.75;1.45;;;;;;;;;;6275737;28;20109;-76
2022/07/13 09:57:33;;;;;;;3.75;1.60;;;;;;;;;;6274836;28;20579;-74
2022/07/13 10:00:34;;;;;;;5.22;1.95;;;;;;;;;;6275093;28;20279;-74
2022/07/13 10:03:39;;;;;;;2.38;1.48;;;;;;;;;;6277259;28;20065;-74
2022/07/13 10:06:40;;;;;;;3.90;1.50;;;;;;;;;;6276385;28;20059;-75
2022/07/13 10:09:42;;;;;;;3.92;1.48;;;;;;;;;;6272569;28;20060;-75
2022/07/13 10:12:45;;;;;;;2.47;1.58;;;;;;;;;;6274806;28;20057;-74
2022/07/13 10:15:47;;;;;;;2.10;1.40;;;;;;;;;;6279288;28;20057;-74
2022/07/13 10:18:50;;;;;;;2.33;1.60;;;;;;;;;;6272701;28;20060;-75
2022/07/13 10:22:01;;;;;;;3.92;1.95;;;;;;;;;;6277184;28;20064;-77
2022/07/13 10:25:03;;;;;;;2.72;1.67;;;;;;;;;;6276105;28;21120;-75
2022/07/13 10:28:05;;;;;;;5.88;1.83;;;;;;;;;;6274399;28;20063;-74
2022/07/13 10:31:28;;;;;;;3.65;1.58;;;;;;;;;;6274285;28;20892;-75
2022/07/13 10:34:53;;;;;;;2.67;1.80;;;;;;;;;;6274340;28;20173;-75
2022/07/13 10:38:27;;;;;;;3.10;1.42;;;;;;;;;;6273912;28;20272;-72
2022/07/13 10:41:29;;;;;;;3.47;1.65;;;;;;;;;;6199696;28;20143;-73
2022/07/13 10:44:35;;;;;;;8.25;1.83;;;;;;;;;;6194069;28;20216;-72
2022/07/13 10:47:44;;;;;;;1.70;1.38;;;;;;;;;;6199657;28;20144;-72
2022/07/13 10:50:48;;;;;;;3.58;1.58;;;;;;;;;;6196769;28;20069;-72
2022/07/13 10:54:17;;;;;;;2.42;1.70;;;;;;;;;;6197060;28;20285;-74
2022/07/13 10:57:18;;;;;;;3.55;1.70;;;;;;;;;;6124507;29;20043;-74
2022/07/13 11:00:37;;;;;;;3.92;1.77;;;;;;;;;;6124356;28;20063;-73
2022/07/13 11:03:47;;;;;;;2.70;1.50;;;;;;;;;;6127385;29;20063;-76
2022/07/13 11:07:09;;;;;;;6.50;1.80;;;;;;;;;;6124271;29;20393;-73
2022/07/13 11:10:19;;;;;;;4.28;1.95;;;;;;;;;;6123552;29;20115;-74
2022/07/13 11:13:27;;;;;;;2.53;1.70;;;;;;;;;;6124234;28;20057;-73
2022/07/13 11:16:50;;;;;;;3.40;1.52;;;;;;;;;;6168818;28;20463;-74
2022/07/13 11:19:54;;;;;;;5.25;2.10;;;;;;;;;;6168502;28;20058;-78
2022/07/13 11:26:36;;;;;;;4.20;2.08;;;;;;;;;;6164810;28;20050;-73
2022/07/13 11:29:44;;;;;;;2.72;1.73;;;;;;;;;;6169131;28;20054;-77
2022/07/13 11:32:46;;;;;;;5.43;2.10;;;;;;;;;;6210825;28;20057;-74
2022/07/13 11:35:48;;;;;;;4.88;2.00;;;;;;;;;;6263139;28;20847;-76
2022/07/13 11:38:51;;;;;;;3.40;1.83;;;;;;;;;;6265367;28;20059;-74
2022/07/13 11:41:53;;;;;;;2.45;1.80;;;;;;;;;;6263945;28;20084;-77
2022/07/13 11:44:55;;;;;;;5.30;1.95;;;;;;;;;;6264602;28;20057;-76
2022/07/13 11:48:00;;;;;;;3.88;2.17;;;;;;;;;;6270157;28;20059;-73
2022/07/13 11:51:08;;;;;;;2.35;1.65;;;;;;;;;;6270659;28;20052;-73
2022/07/13 11:54:13;;;;;;;3.00;2.10;;;;;;;;;;6271580;28;20098;-73
2022/07/13 11:57:19;;;;;;;3.45;2.13;;;;;;;;;;6271767;28;20056;-74
2022/07/13 12:00:21;;;;;;;3.63;2.10;;;;;;;;;;6271129;28;20340;-74
2022/07/13 12:03:30;;;;;;;2.13;1.92;;;;;;;;;;6272039;28;20053;-74
2022/07/13 12:06:32;;;;;;;4.60;2.28;;;;;;;;;;6269388;28;20052;-77
2022/07/13 12:09:35;;;;;;;2.70;2.35;;;;;;;;;;6273939;28;20052;-73
2022/07/13 12:12:37;;;;;;;3.20;2.03;;;;;;;;;;6270521;28;20145;-77
2022/07/13 12:15:39;;;;;;;5.28;2.15;;;;;;;;;;6270875;28;20053;-74
2022/07/13 12:19:03;;;;;;;2.45;2.25;;;;;;;;;;6272252;28;20082;-74
2022/07/13 12:22:07;;;;;;;2.10;1.90;;;;;;;;;;6276687;28;20083;-73
2022/07/13 12:25:10;;;;;;;3.97;1.92;;;;;;;;;;6272721;28;20064;-73
2022/07/13 12:28:12;;;;;;;3.67;2.00;;;;;;;;;;6271007;28;20340;-76
2022/07/13 12:31:13;;;;;;;3.25;1.80;;;;;;;;;;6270513;28;20363;-76
2022/07/13 12:34:15;;;;;;;4.50;2.00;;;;;;;;;;6270229;28;20237;-74
2022/07/13 12:37:31;;;;;;;;;;;;;;;;;;6271130;28;20178;-79
2022/07/13 12:40:39;;;;;;;3.03;1.90;;;;;;;;;;6272837;28;19925;-78
2022/07/13 12:43:41;;;;;;;3.80;2.08;;;;;;;;;;6268035;28;20231;-73
2022/07/13 12:46:47;;;;;;;4.43;2.10;;;;;;;;;;6269306;28;20079;-74
2022/07/13 12:49:49;;;;;;;2.67;2.13;;;;;;;;;;6269216;28;20124;-74
2022/07/13 12:52:59;;;;;;;2.33;1.80;;;;;;;;;;6267508;28;20037;-75
2022/07/13 12:56:02;;;;;;;3.65;1.80;;;;;;;;;;6271067;28;20041;-75
2022/07/13 12:59:06;;;;;;;6.00;1.90;;;;;;;;;;6269307;28;20052;-74
2022/07/13 13:02:08;;;;;;;4.15;2.10;;;;;;;;;;6269970;28;20291;-79
2022/07/13 13:05:10;;;;;;;3.70;2.33;;;;;;;;;;6272287;28;20102;-74
2022/07/13 13:08:12;;;;;;;;;;;;;;;;;;6270612;28;20069;-77
2022/07/13 13:11:15;;;;;;;3.97;2.15;;;;;;;;;;6272788;28;19985;-76
2022/07/13 13:14:18;;;;;;;3.30;2.10;;;;;;;;;;6271591;28;20064;-74
2022/07/13 13:17:20;;;;;;;6.75;2.20;;;;;;;;;;6277585;28;21407;-74
2022/07/13 13:20:21;;;;;;;;;;;;;;;;;;6276074;28;20052;-74
2022/07/13 13:23:23;;;;;;;4.13;1.90;;;;;;;;;;6275870;28;19983;-75
2022/07/13 13:26:26;;;;;;;2.92;2.22;;;;;;;;;;6274045;28;20052;-73
2022/07/13 13:32:47;;;;;;;3.08;2.28;;;;;;;;;;6276449;28;20328;-78
2022/07/13 13:35:48;;;;;;;;;;;;;;;;;;6274460;28;20057;-74
2022/07/13 13:38:50;;;;;;;5.20;2.10;;;;;;;;;;6273466;28;19924;-78
2022/07/13 13:41:53;;;;;;;;;;;;;;;;;;6274195;28;20221;-74
2022/07/13 13:44:54;;;;;;;7.78;1.98;;;;;;;;;;6273180;28;20227;-79
2022/07/13 13:47:56;;;;;;;;;;;;;;;;;;6277476;28;20059;-74
2022/07/13 13:50:58;;;;;;;2.80;2.47;;;;;;;;;;6272368;28;19925;-81
2022/07/13 13:53:59;;;;;;;3.38;2.08;;;;;;;;;;6279586;28;20055;-76
2022/07/13 13:57:02;;;;;;;;;;;;;;;;;;6272822;28;20076;-77
2022/07/13 14:00:05;;;;;;;14.75;3.47;;;;;;;;;;6273181;28;19925;-76
2022/07/13 14:03:07;;;;;;;7.22;2.20;;;;;;;;;;6277319;28;20072;-77
2022/07/13 14:06:12;;;;;;;5.57;2.10;;;;;;;;;;6273774;28;20057;-75
2022/07/13 14:09:13;;;;;;;5.57;2.30;;;;;;;;;;6275357;28;20080;-77
2022/07/13 14:12:16;;;;;;;;;;;;;;;;;;6278348;28;20052;-75
2022/07/13 14:15:18;;;;;;;3.47;2.28;;;;;;;;;;6274225;28;19935;-74
2022/07/13 14:18:26;;;;;;;3.15;2.20;;;;;;;;;;6275359;28;20061;-75
2022/07/13 14:21:28;;;;;;;2.85;2.28;;;;;;;;;;6272488;28;20053;-78
2022/07/13 14:24:29;;;;;;;5.00;2.15;;;;;;;;;;6274673;28;20060;-74
2022/07/13 14:27:32;;;;;;;8.02;2.80;;;;;;;;;;6268432;28;20057;-73
2022/07/13 14:30:34;;;;;;;3.83;2.55;;;;;;;;;;6268299;28;20335;-81
2022/07/13 14:33:36;;;;;;;3.65;2.15;;;;;;;;;;6271999;28;20061;-74
2022/07/13 14:36:38;;;;;;;4.53;2.78;;;;;;;;;;6270011;28;20384;-81
2022/07/13 14:39:40;;;;;;;3.53;2.28;;;;;;;;;;6273036;28;20048;-74
2022/07/13 14:42:43;;;;;;;6.20;2.40;;;;;;;;;;6270441;28;20125;-78
2022/07/13 14:45:46;;;;;;;3.55;2.40;;;;;;;;;;6272371;28;20348;-73
2022/07/13 14:48:48;;;;;;;6.47;2.47;;;;;;;;;;6270027;28;20336;-72
2022/07/13 14:51:50;;;;;;;5.47;2.17;;;;;;;;;;6270966;28;20076;-72
2022/07/13 14:54:51;;;;;;;3.88;2.45;;;;;;;;;;6275414;28;20052;-71
2022/07/13 14:57:54;;;;;;;11.90;3.00;;;;;;;;;;6267359;28;20106;-78
2022/07/13 15:00:56;;;;;;;4.95;2.72;;;;;;;;;;6266736;28;20589;-73
2022/07/13 15:03:58;;;;;;;4.17;2.77;;;;;;;;;;6263303;28;20065;-71
2022/07/13 15:06:59;;;;;;;4.90;2.90;;;;;;;;;;6269058;28;20059;-71
2022/07/13 15:10:01;;;;;;;4.83;2.37;;;;;;;;;;6270362;28;20478;-72
2022/07/13 15:13:04;;;;;;;4.67;2.70;;;;;;;;;;6269942;28;20060;-71
2022/07/13 15:16:06;;;;;;;5.10;2.70;;;;;;;;;;6274515;28;20110;-72
2022/07/13 15:19:09;;;;;;;5.97;2.80;;;;;;;;;;6268506;28;20045;-75
2022/07/13 15:22:11;;;;;;;7.00;2.88;;;;;;;;;;6269567;28;20071;-71
2022/07/13 15:25:12;;;;;;;2.80;2.43;;;;;;;;;;6274127;28;20048;-71
2022/07/13 15:28:15;;;;;;;5.40;2.83;;;;;;;;;;6271834;28;20213;-74
2022/07/13 15:31:17;;;;;;;3.50;2.60;;;;;;;;;;6273935;28;20063;-76
2022/07/13 15:34:19;;;;;;;5.15;2.60;;;;;;;;;;6268842;28;20224;-71
2022/07/13 15:37:21;;;;;;;3.25;2.65;;;;;;;;;;6271597;28;20067;-77
2022/07/13 15:41:22;;;;;;;4.85;2.65;;;;;;;;;;6272793;28;20052;-73
2022/07/13 15:43:47;;;;;;;6.60;2.93;;;;;;;;;;6270780;28;20059;-71
2022/07/13 15:46:49;;;;;;;5.05;2.58;;;;;;;;;;6268551;28;20065;-71
2022/07/13 15:49:50;;;;;;;4.82;2.40;;;;;;;;;;6271853;28;20048;-77
2022/07/13 15:52:52;;;;;;;4.78;2.72;;;;;;;;;;6272991;28;20363;-75
2022/07/13 15:55:54;;;;;;;6.87;2.90;;;;;;;;;;6271855;28;20048;-72
2022/07/13 15:58:59;;;;;;;3.85;2.97;;;;;;;;;;6271595;28;20057;-75
2022/07/13 16:02:00;;;;;;;3.83;3.08;;;;;;;;;;6270624;28;20126;-72
2022/07/13 16:05:02;;;;;;;4.63;2.70;;;;;;;;;;6269390;28;20347;-78
2022/07/13 16:08:04;;;;;;;3.55;2.45;;;;;;;;;;6267752;28;20244;-73
2022/07/13 16:11:06;;;;;;;4.00;2.97;;;;;;;;;;6270810;28;20833;-73
2022/07/13 16:14:09;;;;;;;4.73;2.83;;;;;;;;;;6274143;28;20049;-72
2022/07/13 16:17:10;;;;;;;8.27;2.72;;;;;;;;;;6273312;28;20044;-72
2022/07/13 16:20:12;;;;;;;6.43;2.67;;;;;;;;;;6275035;28;20048;-73
2022/07/13 16:23:14;;;;;;;4.47;3.00;;;;;;;;;;6269852;28;20060;-75
2022/07/13 16:26:15;;;;;;;5.80;2.80;;;;;;;;;;6272814;28;20122;-73
2022/07/13 16:29:18;;;;;;;4.38;2.75;;;;;;;;;;6271111;28;20264;-76
2022/07/13 16:32:20;;;;;;;7.72;2.85;;;;;;;;;;6271307;28;20358;-74
2022/07/13 16:35:22;;;;;;;7.90;3.00;;;;;;;;;;6269768;28;20048;-74
2022/07/13 16:38:24;;;;;;;2.95;2.50;;;;;;;;;;6269583;28;20066;-74
2022/07/13 16:41:26;;;;;;;4.05;2.90;;;;;;;;;;6267677;28;20053;-73
2022/07/13 16:44:29;;;;;;;4.85;3.03;;;;;;;;;;6268514;28;20059;-73
2022/07/13 16:47:31;;;;;;;6.32;3.13;;;;;;;;;;6269600;28;20350;-72
2022/07/13 16:50:33;;;;;;;7.45;3.22;;;;;;;;;;6275330;28;20057;-77
2022/07/13 16:53:34;;;;;;;3.57;2.70;;;;;;;;;;6274538;28;20140;-73
2022/07/13 16:56:38;;;;;;;6.50;3.10;;;;;;;;;;6273795;28;20056;-77
2022/07/13 16:59:41;;;;;;;4.18;2.88;;;;;;;;;;6276859;28;20052;-72
2022/07/13 17:02:43;;;;;;;3.97;2.90;;;;;;;;;;6276332;28;20048;-75
2022/07/13 17:05:44;;;;;;;5.22;3.08;;;;;;;;;;6273213;28;20052;-73
2022/07/13 17:08:46;;;;;;;5.35;2.70;;;;;;;;;;6275313;28;20228;-73
2022/07/13 17:11:48;;;;;;;5.13;2.80;;;;;;;;;;6274412;28;20052;-70
2022/07/13 17:14:51;;;;;;;3.23;2.83;;;;;;;;;;6272936;28;20053;-72
2022/07/13 17:17:53;;;;;;;4.63;2.97;;;;;;;;;;6279690;28;20474;-74
2022/07/13 17:20:54;;;;;;;3.80;2.90;;;;;;;;;;6273258;28;20112;-71
2022/07/13 17:23:57;;;;;;;3.47;2.97;;;;;;;;;;6275803;28;20059;-73
2022/07/13 17:26:59;;;;;;;4.32;3.30;;;;;;;;;;6273465;28;20048;-73
2022/07/13 17:30:02;;;;;;;5.80;3.20;;;;;;;;;;6272871;28;20135;-75
2022/07/13 17:33:04;;;;;;;5.88;2.85;;;;;;;;;;6271741;28;20336;-73
2022/07/13 17:36:06;;;;;;;5.63;2.78;;;;;;;;;;6270261;28;20154;-75
2022/07/13 17:39:08;;;;;;;4.20;2.40;;;;;;;;;;6272333;28;20056;-73
2022/07/13 17:42:10;;;;;;;5.43;3.20;;;;;;;;;;6272057;28;20159;-74
2022/07/13 17:45:13;;;;;;;5.80;2.80;;;;;;;;;;6274297;28;20048;-73
2022/07/13 17:48:14;;;;;;;3.35;3.00;;;;;;;;;;6272755;28;20052;-73
2022/07/13 17:51:16;;;;;;;5.65;2.60;;;;;;;;;;6271751;28;20049;-78
2022/07/13 17:54:20;;;;;;;4.45;3.03;;;;;;;;;;6276036;28;20057;-76
2022/07/13 17:57:21;;;;;;;7.40;3.20;;;;;;;;;;6275210;28;20091;-74
2022/07/13 18:00:24;;;;;;;3.70;2.80;;;;;;;;;;6273724;28;20267;-71
2022/07/13 18:03:26;;;;;;;7.28;3.08;;;;;;;;;;6272869;28;20071;-74
2022/07/13 18:06:28;;;;;;;3.30;2.85;;;;;;;;;;6270960;28;20041;-71
2022/07/13 18:09:29;;;;;;;4.63;2.90;;;;;;;;;;6274332;28;20375;-74
2022/07/13 18:12:31;;;;;;;4.07;2.78;;;;;;;;;;6270429;28;20251;-73
2022/07/13 18:15:34;;;;;;;4.20;3.10;;;;;;;;;;6271869;28;20270;-76
2022/07/13 18:18:36;;;;;;;4.15;3.13;;;;;;;;;;6270382;28;20053;-72
2022/07/13 18:21:38;;;;;;;10.10;3.03;;;;;;;;;;6272375;28;20124;-72
2022/07/13 18:24:39;;;;;;;4.97;3.00;;;;;;;;;;6267331;28;20186;-72
2022/07/13 18:27:42;;;;;;;8.50;2.90;;;;;;;;;;6267855;28;20063;-71
2022/07/13 18:30:45;;;;;;;4.20;3.20;;;;;;;;;;6262757;28;20058;-71
2022/07/13 18:33:47;;;;;;;4.85;2.83;;;;;;;;;;6268586;28;20328;-73
2022/07/13 18:36:49;;;;;;;4.25;3.35;;;;;;;;;;6272506;28;20049;-72